sensor_id;sensor_type;location;lat;lon;timestamp;temperature;humidity
29663;DHT22;16578;53.266;7.920;2023-11-21T00:01:40;13.40;85.50
29663;DHT22;16578;53.266;7.920;2023-11-21T00:04:05;13.50;85.60
29663;DHT22;16578;53.266;7.920;2023-11-21T00:06:32;13.50;85.60
29663;DHT22;16578;53.266;7.920;2023-11-21T00:08:58;13.40;85.50
29663;DHT22;16578;53.266;7.920;2023-11-21T00:11:24;13.40;85.50
29663;DHT22;16578;53.266;7.920;2023-11-21T00:13:50;13.40;85.50
29663;DHT22;16578;53.266;7.920;2023-11-21T00:16:16;13.40;85.50
29663;DHT22;16578;53.266;7.920;2023-11-21T00:18:42;13.40;85.50
29663;DHT22;16578;53.266;7.920;2023-11-21T00:21:08;13.40;85.50
29663;DHT22;16578;53.266;7.920;2023-11-21T00:23:34;13.40;85.50
29663;DHT22;16578;53.266;7.920;2023-11-21T00:26:00;13.40;85.50
29663;DHT22;16578;53.266;7.920;2023-11-21T00:28:26;13.40;85.50
29663;DHT22;16578;53.266;7.920;2023-11-21T00:30:52;13.40;85.50
29663;DHT22;16578;53.266;7.920;2023-11-21T00:33:17;13.40;85.50
29663;DHT22;16578;53.266;7.920;2023-11-21T00:35:43;13.40;85.60
29663;DHT22;16578;53.266;7.920;2023-11-21T00:38:08;13.50;85.60
29663;DHT22;16578;53.266;7.920;2023-11-21T00:40:34;13.50;85.60
29663;DHT22;16578;53.266;7.920;2023-11-21T00:42:59;13.50;85.70
29663;DHT22;16578;53.266;7.920;2023-11-21T00:45:26;13.50;85.60
29663;DHT22;16578;53.266;7.920;2023-11-21T00:47:51;13.50;85.60
29663;DHT22;16578;53.266;7.920;2023-11-21T00:50:17;13.50;85.60
29663;DHT22;16578;53.266;7.920;2023-11-21T00:52:42;13.50;85.60
29663;DHT22;16578;53.266;7.920;2023-11-21T00:55:08;13.50;85.60
29663;DHT22;16578;53.266;7.920;2023-11-21T00:57:35;13.50;85.60
29663;DHT22;16578;53.266;7.920;2023-11-21T01:00:00;13.50;85.60
29663;DHT22;16578;53.266;7.920;2023-11-21T01:02:26;13.50;85.60
29663;DHT22;16578;53.266;7.920;2023-11-21T01:04:52;13.50;85.60
29663;DHT22;16578;53.266;7.920;2023-11-21T01:07:17;13.50;85.60
29663;DHT22;16578;53.266;7.920;2023-11-21T01:09:46;13.50;85.60
29663;DHT22;16578;53.266;7.920;2023-11-21T01:12:11;13.50;85.60
29663;DHT22;16578;53.266;7.920;2023-11-21T01:14:37;13.50;85.60
29663;DHT22;16578;53.266;7.920;2023-11-21T01:17:02;13.50;85.70
29663;DHT22;16578;53.266;7.920;2023-11-21T01:19:30;13.50;85.80
29663;DHT22;16578;53.266;7.920;2023-11-21T01:21:55;13.50;85.70
29663;DHT22;16578;53.266;7.920;2023-11-21T01:24:22;13.50;85.70
29663;DHT22;16578;53.266;7.920;2023-11-21T01:26:47;13.50;85.80
29663;DHT22;16578;53.266;7.920;2023-11-21T01:29:13;13.50;85.80
29663;DHT22;16578;53.266;7.920;2023-11-21T01:31:40;13.50;85.80
29663;DHT22;16578;53.266;7.920;2023-11-21T01:34:06;13.50;85.70
29663;DHT22;16578;53.266;7.920;2023-11-21T01:36:32;13.50;85.70
29663;DHT22;16578;53.266;7.920;2023-11-21T01:38:59;13.50;85.60
29663;DHT22;16578;53.266;7.920;2023-11-21T01:41:26;13.50;85.40
29663;DHT22;16578;53.266;7.920;2023-11-21T01:43:52;13.50;85.30
29663;DHT22;16578;53.266;7.920;2023-11-21T01:46:19;13.40;85.20
29663;DHT22;16578;53.266;7.920;2023-11-21T01:48:46;13.40;85.20
29663;DHT22;16578;53.266;7.920;2023-11-21T01:51:12;13.40;85.40
29663;DHT22;16578;53.266;7.920;2023-11-21T01:53:38;13.30;85.50
29663;DHT22;16578;53.266;7.920;2023-11-21T01:56:05;13.30;85.60
29663;DHT22;16578;53.266;7.920;2023-11-21T01:58:32;13.30;85.70
29663;DHT22;16578;53.266;7.920;2023-11-21T02:00:58;13.30;85.80
29663;DHT22;16578;53.266;7.920;2023-11-21T02:03:24;13.30;85.80
29663;DHT22;16578;53.266;7.920;2023-11-21T02:05:52;13.30;86.00
29663;DHT22;16578;53.266;7.920;2023-11-21T02:08:19;13.30;86.00
29663;DHT22;16578;53.266;7.920;2023-11-21T02:10:45;13.30;86.10
29663;DHT22;16578;53.266;7.920;2023-11-21T02:13:10;13.30;86.20
29663;DHT22;16578;53.266;7.920;2023-11-21T02:15:37;13.30;86.20
29663;DHT22;16578;53.266;7.920;2023-11-21T02:18:04;13.30;86.20
29663;DHT22;16578;53.266;7.920;2023-11-21T02:20:31;13.40;86.10
29663;DHT22;16578;53.266;7.920;2023-11-21T02:23:00;13.30;86.10
29663;DHT22;16578;53.266;7.920;2023-11-21T02:25:28;13.40;86.10
29663;DHT22;16578;53.266;7.920;2023-11-21T02:27:58;13.40;86.10
29663;DHT22;16578;53.266;7.920;2023-11-21T02:30:24;13.40;86.00
29663;DHT22;16578;53.266;7.920;2023-11-21T02:32:59;13.40;86.10
29663;DHT22;16578;53.266;7.920;2023-11-21T02:35:26;13.50;86.20
29663;DHT22;16578;53.266;7.920;2023-11-21T02:37:52;13.40;86.10
29663;DHT22;16578;53.266;7.920;2023-11-21T02:40:18;13.50;86.10
29663;DHT22;16578;53.266;7.920;2023-11-21T02:42:44;13.50;87.00
29663;DHT22;16578;53.266;7.920;2023-11-21T02:45:10;13.50;86.00
29663;DHT22;16578;53.266;7.920;2023-11-21T02:47:38;13.50;86.00
29663;DHT22;16578;53.266;7.920;2023-11-21T02:50:04;13.50;86.00
29663;DHT22;16578;53.266;7.920;2023-11-21T02:52:31;13.50;86.00
29663;DHT22;16578;53.266;7.920;2023-11-21T02:54:58;13.50;85.90
29663;DHT22;16578;53.266;7.920;2023-11-21T02:57:24;13.50;85.90
29663;DHT22;16578;53.266;7.920;2023-11-21T02:59:49;13.50;85.80
29663;DHT22;16578;53.266;7.920;2023-11-21T03:02:15;13.50;85.90
29663;DHT22;16578;53.266;7.920;2023-11-21T03:04:41;13.50;86.00
29663;DHT22;16578;53.266;7.920;2023-11-21T03:07:08;13.50;85.90
29663;DHT22;16578;53.266;7.920;2023-11-21T03:09:34;13.50;86.00
29663;DHT22;16578;53.266;7.920;2023-11-21T03:12:00;13.50;85.90
29663;DHT22;16578;53.266;7.920;2023-11-21T03:14:26;13.50;85.90
29663;DHT22;16578;53.266;7.920;2023-11-21T03:16:51;13.50;85.90
29663;DHT22;16578;53.266;7.920;2023-11-21T03:19:17;13.50;85.90
29663;DHT22;16578;53.266;7.920;2023-11-21T03:21:42;13.50;85.90
29663;DHT22;16578;53.266;7.920;2023-11-21T03:24:08;13.50;85.90
29663;DHT22;16578;53.266;7.920;2023-11-21T03:26:33;13.50;85.90
29663;DHT22;16578;53.266;7.920;2023-11-21T03:28:59;13.50;85.90
29663;DHT22;16578;53.266;7.920;2023-11-21T03:31:25;13.50;85.80
29663;DHT22;16578;53.266;7.920;2023-11-21T03:33:50;13.50;85.70
29663;DHT22;16578;53.266;7.920;2023-11-21T03:36:16;13.50;85.60
29663;DHT22;16578;53.266;7.920;2023-11-21T03:38:43;13.40;85.50
29663;DHT22;16578;53.266;7.920;2023-11-21T03:41:08;13.40;85.50
29663;DHT22;16578;53.266;7.920;2023-11-21T03:43:37;13.40;85.60
29663;DHT22;16578;53.266;7.920;2023-11-21T03:46:03;13.30;85.50
29663;DHT22;16578;53.266;7.920;2023-11-21T03:48:29;13.30;85.50
29663;DHT22;16578;53.266;7.920;2023-11-21T03:50:55;13.20;85.50
29663;DHT22;16578;53.266;7.920;2023-11-21T03:53:20;13.10;85.60
29663;DHT22;16578;53.266;7.920;2023-11-21T03:55:46;13.10;85.80
29663;DHT22;16578;53.266;7.920;2023-11-21T03:58:11;13.10;85.90
29663;DHT22;16578;53.266;7.920;2023-11-21T04:00:37;13.10;86.00
29663;DHT22;16578;53.266;7.920;2023-11-21T04:03:03;13.10;86.20
29663;DHT22;16578;53.266;7.920;2023-11-21T04:05:28;13.00;86.30
29663;DHT22;16578;53.266;7.920;2023-11-21T04:07:54;13.00;86.30
29663;DHT22;16578;53.266;7.920;2023-11-21T04:10:20;13.00;86.30
29663;DHT22;16578;53.266;7.920;2023-11-21T04:12:45;13.00;86.30
29663;DHT22;16578;53.266;7.920;2023-11-21T04:15:11;13.00;86.30
29663;DHT22;16578;53.266;7.920;2023-11-21T04:17:38;13.00;86.20
29663;DHT22;16578;53.266;7.920;2023-11-21T04:20:05;12.90;86.10
29663;DHT22;16578;53.266;7.920;2023-11-21T04:22:43;12.90;86.10
29663;DHT22;16578;53.266;7.920;2023-11-21T04:25:13;12.90;86.10
29663;DHT22;16578;53.266;7.920;2023-11-21T04:27:40;12.80;86.10
29663;DHT22;16578;53.266;7.920;2023-11-21T04:30:06;12.80;86.10
29663;DHT22;16578;53.266;7.920;2023-11-21T04:32:33;12.80;86.20
29663;DHT22;16578;53.266;7.920;2023-11-21T04:34:58;12.70;86.00
29663;DHT22;16578;53.266;7.920;2023-11-21T04:37:24;12.70;86.10
29663;DHT22;16578;53.266;7.920;2023-11-21T04:39:50;12.60;86.10
29663;DHT22;16578;53.266;7.920;2023-11-21T04:42:15;12.60;86.20
29663;DHT22;16578;53.266;7.920;2023-11-21T04:44:41;12.50;86.20
29663;DHT22;16578;53.266;7.920;2023-11-21T04:47:07;12.60;86.40
29663;DHT22;16578;53.266;7.920;2023-11-21T04:49:33;12.50;86.30
29663;DHT22;16578;53.266;7.920;2023-11-21T04:51:59;12.50;86.30
29663;DHT22;16578;53.266;7.920;2023-11-21T04:54:25;12.40;86.20
29663;DHT22;16578;53.266;7.920;2023-11-21T04:56:50;12.40;86.30
29663;DHT22;16578;53.266;7.920;2023-11-21T04:59:16;12.40;86.40
29663;DHT22;16578;53.266;7.920;2023-11-21T05:01:41;12.40;86.40
29663;DHT22;16578;53.266;7.920;2023-11-21T05:04:07;12.40;86.30
29663;DHT22;16578;53.266;7.920;2023-11-21T05:06:34;12.30;86.20
29663;DHT22;16578;53.266;7.920;2023-11-21T05:08:59;12.30;86.20
29663;DHT22;16578;53.266;7.920;2023-11-21T05:11:26;12.20;86.30
29663;DHT22;16578;53.266;7.920;2023-11-21T05:13:52;12.20;86.30
29663;DHT22;16578;53.266;7.920;2023-11-21T05:16:19;12.20;86.30
29663;DHT22;16578;53.266;7.920;2023-11-21T05:18:44;12.10;86.30
29663;DHT22;16578;53.266;7.920;2023-11-21T05:21:10;12.10;86.40
29663;DHT22;16578;53.266;7.920;2023-11-21T05:23:36;12.10;86.60
29663;DHT22;16578;53.266;7.920;2023-11-21T05:26:02;12.10;86.60
29663;DHT22;16578;53.266;7.920;2023-11-21T05:28:28;12.00;86.60
29663;DHT22;16578;53.266;7.920;2023-11-21T05:30:54;12.00;86.70
29663;DHT22;16578;53.266;7.920;2023-11-21T05:33:20;12.00;86.70
29663;DHT22;16578;53.266;7.920;2023-11-21T05:35:46;12.00;86.80
29663;DHT22;16578;53.266;7.920;2023-11-21T05:38:11;12.00;86.80
29663;DHT22;16578;53.266;7.920;2023-11-21T05:40:37;12.00;86.80
29663;DHT22;16578;53.266;7.920;2023-11-21T05:43:02;12.00;86.80
29663;DHT22;16578;53.266;7.920;2023-11-21T05:45:28;12.00;86.80
29663;DHT22;16578;53.266;7.920;2023-11-21T05:47:55;12.00;86.80
29663;DHT22;16578;53.266;7.920;2023-11-21T05:50:21;11.90;86.70
29663;DHT22;16578;53.266;7.920;2023-11-21T05:52:47;11.90;86.70
29663;DHT22;16578;53.266;7.920;2023-11-21T05:55:13;11.90;86.70
29663;DHT22;16578;53.266;7.920;2023-11-21T05:57:40;11.90;86.80
29663;DHT22;16578;53.266;7.920;2023-11-21T06:00:15;11.90;86.80
29663;DHT22;16578;53.266;7.920;2023-11-21T06:02:46;11.90;86.70
29663;DHT22;16578;53.266;7.920;2023-11-21T06:05:12;11.90;86.80
29663;DHT22;16578;53.266;7.920;2023-11-21T06:07:38;11.80;86.80
29663;DHT22;16578;53.266;7.920;2023-11-21T06:10:05;11.80;86.90
29663;DHT22;16578;53.266;7.920;2023-11-21T06:12:38;11.80;86.80
29663;DHT22;16578;53.266;7.920;2023-11-21T06:15:05;11.80;86.80
29663;DHT22;16578;53.266;7.920;2023-11-21T06:17:34;11.80;86.90
29663;DHT22;16578;53.266;7.920;2023-11-21T06:20:02;11.80;86.90
29663;DHT22;16578;53.266;7.920;2023-11-21T06:22:37;11.80;87.00
29663;DHT22;16578;53.266;7.920;2023-11-21T06:25:03;11.80;87.00
29663;DHT22;16578;53.266;7.920;2023-11-21T06:27:38;11.80;86.80
29663;DHT22;16578;53.266;7.920;2023-11-21T06:30:04;11.70;86.80
29663;DHT22;16578;53.266;7.920;2023-11-21T06:32:30;11.70;86.90
29663;DHT22;16578;53.266;7.920;2023-11-21T06:34:56;11.70;86.90
29663;DHT22;16578;53.266;7.920;2023-11-21T06:37:25;11.70;86.90
29663;DHT22;16578;53.266;7.920;2023-11-21T06:39:50;11.70;86.90
29663;DHT22;16578;53.266;7.920;2023-11-21T06:42:18;11.70;86.80
29663;DHT22;16578;53.266;7.920;2023-11-21T06:44:45;11.70;86.90
29663;DHT22;16578;53.266;7.920;2023-11-21T06:47:11;11.70;86.80
29663;DHT22;16578;53.266;7.920;2023-11-21T06:49:36;11.60;86.80
29663;DHT22;16578;53.266;7.920;2023-11-21T06:52:04;11.70;86.80
29663;DHT22;16578;53.266;7.920;2023-11-21T06:54:31;11.60;87.60
29663;DHT22;16578;53.266;7.920;2023-11-21T06:56:56;11.70;86.70
29663;DHT22;16578;53.266;7.920;2023-11-21T06:59:22;11.60;86.60
29663;DHT22;16578;53.266;7.920;2023-11-21T07:01:47;11.60;86.70
29663;DHT22;16578;53.266;7.920;2023-11-21T07:04:13;11.60;86.70
29663;DHT22;16578;53.266;7.920;2023-11-21T07:06:38;11.60;86.60
29663;DHT22;16578;53.266;7.920;2023-11-21T07:09:04;11.60;86.60
29663;DHT22;16578;53.266;7.920;2023-11-21T07:11:29;11.60;86.50
29663;DHT22;16578;53.266;7.920;2023-11-21T07:13:55;11.60;86.40
29663;DHT22;16578;53.266;7.920;2023-11-21T07:16:21;11.60;86.30
29663;DHT22;16578;53.266;7.920;2023-11-21T07:18:47;11.60;86.10
29663;DHT22;16578;53.266;7.920;2023-11-21T07:21:14;11.50;85.90
29663;DHT22;16578;53.266;7.920;2023-11-21T07:23:41;11.50;85.90
29663;DHT22;16578;53.266;7.920;2023-11-21T07:26:07;11.40;85.80
29663;DHT22;16578;53.266;7.920;2023-11-21T07:28:35;11.40;85.80
29663;DHT22;16578;53.266;7.920;2023-11-21T07:31:01;11.40;85.90
29663;DHT22;16578;53.266;7.920;2023-11-21T07:33:27;11.30;85.80
29663;DHT22;16578;53.266;7.920;2023-11-21T07:35:52;11.30;85.90
29663;DHT22;16578;53.266;7.920;2023-11-21T07:38:18;11.30;86.00
29663;DHT22;16578;53.266;7.920;2023-11-21T07:40:43;11.30;85.80
29663;DHT22;16578;53.266;7.920;2023-11-21T07:43:09;11.20;85.80
29663;DHT22;16578;53.266;7.920;2023-11-21T07:45:36;11.20;85.80
29663;DHT22;16578;53.266;7.920;2023-11-21T07:48:01;11.20;85.80
29663;DHT22;16578;53.266;7.920;2023-11-21T07:50:29;11.10;85.80
29663;DHT22;16578;53.266;7.920;2023-11-21T07:52:55;11.10;85.90
29663;DHT22;16578;53.266;7.920;2023-11-21T07:55:20;11.10;86.00
29663;DHT22;16578;53.266;7.920;2023-11-21T07:57:46;11.10;86.20
29663;DHT22;16578;53.266;7.920;2023-11-21T08:00:12;11.10;86.40
29663;DHT22;16578;53.266;7.920;2023-11-21T08:02:39;11.10;86.50
29663;DHT22;16578;53.266;7.920;2023-11-21T08:05:08;11.10;86.40
29663;DHT22;16578;53.266;7.920;2023-11-21T08:07:33;11.10;86.30
29663;DHT22;16578;53.266;7.920;2023-11-21T08:09:59;11.10;86.20
29663;DHT22;16578;53.266;7.920;2023-11-21T08:12:24;11.10;86.30
29663;DHT22;16578;53.266;7.920;2023-11-21T08:14:51;11.10;86.40
29663;DHT22;16578;53.266;7.920;2023-11-21T08:17:17;11.10;86.60
29663;DHT22;16578;53.266;7.920;2023-11-21T08:19:44;11.10;86.60
29663;DHT22;16578;53.266;7.920;2023-11-21T08:22:17;11.20;86.70
29663;DHT22;16578;53.266;7.920;2023-11-21T08:24:44;11.20;86.70
29663;DHT22;16578;53.266;7.920;2023-11-21T08:27:09;11.20;86.60
29663;DHT22;16578;53.266;7.920;2023-11-21T08:29:35;11.20;86.50
29663;DHT22;16578;53.266;7.920;2023-11-21T08:32:02;11.20;86.30
29663;DHT22;16578;53.266;7.920;2023-11-21T08:34:28;11.30;86.40
29663;DHT22;16578;53.266;7.920;2023-11-21T08:36:54;11.30;86.10
29663;DHT22;16578;53.266;7.920;2023-11-21T08:39:21;11.30;86.00
29663;DHT22;16578;53.266;7.920;2023-11-21T08:41:49;11.30;86.10
29663;DHT22;16578;53.266;7.920;2023-11-21T08:44:16;11.20;86.00
29663;DHT22;16578;53.266;7.920;2023-11-21T08:46:43;11.20;86.10
29663;DHT22;16578;53.266;7.920;2023-11-21T08:49:11;11.20;85.90
29663;DHT22;16578;53.266;7.920;2023-11-21T08:51:37;11.30;86.00
29663;DHT22;16578;53.266;7.920;2023-11-21T08:54:03;11.30;85.80
29663;DHT22;16578;53.266;7.920;2023-11-21T08:56:30;11.20;85.60
29663;DHT22;16578;53.266;7.920;2023-11-21T08:58:55;11.20;85.60
29663;DHT22;16578;53.266;7.920;2023-11-21T09:01:22;11.20;85.50
29663;DHT22;16578;53.266;7.920;2023-11-21T09:03:48;11.20;85.40
29663;DHT22;16578;53.266;7.920;2023-11-21T09:06:15;11.20;85.40
29663;DHT22;16578;53.266;7.920;2023-11-21T09:08:40;11.20;85.50
29663;DHT22;16578;53.266;7.920;2023-11-21T09:11:07;11.20;85.50
29663;DHT22;16578;53.266;7.920;2023-11-21T09:13:33;11.30;85.60
29663;DHT22;16578;53.266;7.920;2023-11-21T09:16:00;11.20;85.60
29663;DHT22;16578;53.266;7.920;2023-11-21T09:18:25;11.20;85.60
29663;DHT22;16578;53.266;7.920;2023-11-21T09:20:51;11.20;85.70
29663;DHT22;16578;53.266;7.920;2023-11-21T09:23:16;11.20;85.70
29663;DHT22;16578;53.266;7.920;2023-11-21T09:25:42;11.30;85.70
29663;DHT22;16578;53.266;7.920;2023-11-21T09:28:11;11.30;85.60
29663;DHT22;16578;53.266;7.920;2023-11-21T09:30:37;11.30;85.60
29663;DHT22;16578;53.266;7.920;2023-11-21T09:33:03;11.30;85.50
29663;DHT22;16578;53.266;7.920;2023-11-21T09:35:33;11.30;85.50
29663;DHT22;16578;53.266;7.920;2023-11-21T09:37:59;11.40;85.40
29663;DHT22;16578;53.266;7.920;2023-11-21T09:40:26;11.30;85.20
29663;DHT22;16578;53.266;7.920;2023-11-21T09:42:55;11.30;85.20
29663;DHT22;16578;53.266;7.920;2023-11-21T09:45:28;11.40;85.30
29663;DHT22;16578;53.266;7.920;2023-11-21T09:47:55;11.40;85.40
29663;DHT22;16578;53.266;7.920;2023-11-21T09:50:21;11.30;86.20
29663;DHT22;16578;53.266;7.920;2023-11-21T09:52:57;11.40;85.30
29663;DHT22;16578;53.266;7.920;2023-11-21T09:55:26;11.40;85.00
29663;DHT22;16578;53.266;7.920;2023-11-21T09:57:54;11.40;84.90
29663;DHT22;16578;53.266;7.920;2023-11-21T10:00:22;11.40;84.90
29663;DHT22;16578;53.266;7.920;2023-11-21T10:02:49;11.30;84.80
29663;DHT22;16578;53.266;7.920;2023-11-21T10:05:15;11.30;84.90
29663;DHT22;16578;53.266;7.920;2023-11-21T10:07:43;11.40;84.90
29663;DHT22;16578;53.266;7.920;2023-11-21T10:10:10;11.40;84.90
29663;DHT22;16578;53.266;7.920;2023-11-21T10:12:36;11.40;84.90
29663;DHT22;16578;53.266;7.920;2023-11-21T10:15:07;11.40;84.90
29663;DHT22;16578;53.266;7.920;2023-11-21T10:17:35;11.40;84.80
29663;DHT22;16578;53.266;7.920;2023-11-21T10:20:07;11.40;84.70
29663;DHT22;16578;53.266;7.920;2023-11-21T10:22:38;11.40;84.70
29663;DHT22;16578;53.266;7.920;2023-11-21T10:25:04;11.40;84.90
29663;DHT22;16578;53.266;7.920;2023-11-21T10:27:34;11.40;84.80
29663;DHT22;16578;53.266;7.920;2023-11-21T10:30:02;11.40;84.90
29663;DHT22;16578;53.266;7.920;2023-11-21T10:32:28;11.50;84.90
29663;DHT22;16578;53.266;7.920;2023-11-21T10:34:58;11.50;84.90
29663;DHT22;16578;53.266;7.920;2023-11-21T10:37:25;11.50;84.90
29663;DHT22;16578;53.266;7.920;2023-11-21T10:39:57;11.50;84.70
29663;DHT22;16578;53.266;7.920;2023-11-21T10:42:24;11.50;84.60
29663;DHT22;16578;53.266;7.920;2023-11-21T10:44:49;11.50;84.60
29663;DHT22;16578;53.266;7.920;2023-11-21T10:47:16;11.60;84.70
29663;DHT22;16578;53.266;7.920;2023-11-21T10:49:44;11.50;84.50
29663;DHT22;16578;53.266;7.920;2023-11-21T10:52:13;11.60;84.60
29663;DHT22;16578;53.266;7.920;2023-11-21T10:54:43;11.50;84.40
29663;DHT22;16578;53.266;7.920;2023-11-21T10:57:10;11.60;84.50
29663;DHT22;16578;53.266;7.920;2023-11-21T10:59:36;11.60;84.30
29663;DHT22;16578;53.266;7.920;2023-11-21T11:02:18;11.60;84.20
29663;DHT22;16578;53.266;7.920;2023-11-21T11:04:48;11.60;84.10
29663;DHT22;16578;53.266;7.920;2023-11-21T11:07:14;11.60;84.10
29663;DHT22;16578;53.266;7.920;2023-11-21T11:09:41;11.60;84.10
29663;DHT22;16578;53.266;7.920;2023-11-21T11:12:08;11.60;84.20
29663;DHT22;16578;53.266;7.920;2023-11-21T11:14:35;11.70;84.20
29663;DHT22;16578;53.266;7.920;2023-11-21T11:17:02;11.70;84.10
29663;DHT22;16578;53.266;7.920;2023-11-21T11:19:29;11.70;83.90
29663;DHT22;16578;53.266;7.920;2023-11-21T11:30:39;11.70;83.60
29663;DHT22;16578;53.266;7.920;2023-11-21T11:33:31;11.70;83.70
29663;DHT22;16578;53.266;7.920;2023-11-21T11:36:10;11.70;83.80
29663;DHT22;16578;53.266;7.920;2023-11-21T11:38:38;11.70;83.80
29663;DHT22;16578;53.266;7.920;2023-11-21T11:41:06;11.70;84.00
29663;DHT22;16578;53.266;7.920;2023-11-21T11:43:32;11.70;83.90
29663;DHT22;16578;53.266;7.920;2023-11-21T11:45:59;11.70;83.90
29663;DHT22;16578;53.266;7.920;2023-11-21T11:48:25;11.70;83.80
29663;DHT22;16578;53.266;7.920;2023-11-21T11:51:10;11.70;83.60
29663;DHT22;16578;53.266;7.920;2023-11-21T11:53:47;11.80;83.20
29663;DHT22;16578;53.266;7.920;2023-11-21T11:56:24;11.80;83.40
29663;DHT22;16578;53.266;7.920;2023-11-21T11:58:55;11.70;83.30
29663;DHT22;16578;53.266;7.920;2023-11-21T12:01:22;11.70;83.30
29663;DHT22;16578;53.266;7.920;2023-11-21T12:06:42;11.70;83.10
29663;DHT22;16578;53.266;7.920;2023-11-21T12:09:23;11.70;83.30
29663;DHT22;16578;53.266;7.920;2023-11-21T12:11:50;11.70;83.30
29663;DHT22;16578;53.266;7.920;2023-11-21T12:14:16;11.70;83.50
29663;DHT22;16578;53.266;7.920;2023-11-21T12:16:42;11.70;84.30
29663;DHT22;16578;53.266;7.920;2023-11-21T12:19:11;11.70;83.50
29663;DHT22;16578;53.266;7.920;2023-11-21T12:21:37;11.70;83.40
29663;DHT22;16578;53.266;7.920;2023-11-21T12:24:03;11.70;83.40
29663;DHT22;16578;53.266;7.920;2023-11-21T12:26:29;11.70;83.50
29663;DHT22;16578;53.266;7.920;2023-11-21T12:28:55;11.70;83.50
29663;DHT22;16578;53.266;7.920;2023-11-21T12:31:23;11.70;83.60
29663;DHT22;16578;53.266;7.920;2023-11-21T12:33:50;11.70;83.60
29663;DHT22;16578;53.266;7.920;2023-11-21T12:36:16;11.70;83.50
29663;DHT22;16578;53.266;7.920;2023-11-21T12:38:42;11.70;83.50
29663;DHT22;16578;53.266;7.920;2023-11-21T12:41:10;11.80;83.60
29663;DHT22;16578;53.266;7.920;2023-11-21T12:43:36;11.80;83.50
29663;DHT22;16578;53.266;7.920;2023-11-21T12:48:33;11.80;83.00
29663;DHT22;16578;53.266;7.920;2023-11-21T12:50:58;11.80;82.70
29663;DHT22;16578;53.266;7.920;2023-11-21T12:53:26;11.80;82.70
29663;DHT22;16578;53.266;7.920;2023-11-21T12:55:51;11.80;82.80
29663;DHT22;16578;53.266;7.920;2023-11-21T12:58:17;11.80;82.60
29663;DHT22;16578;53.266;7.920;2023-11-21T13:00:47;11.80;82.40
29663;DHT22;16578;53.266;7.920;2023-11-21T13:03:14;11.70;82.30
29663;DHT22;16578;53.266;7.920;2023-11-21T13:05:43;11.70;82.30
29663;DHT22;16578;53.266;7.920;2023-11-21T13:08:14;11.80;82.50
29663;DHT22;16578;53.266;7.920;2023-11-21T13:10:45;11.80;82.50
29663;DHT22;16578;53.266;7.920;2023-11-21T13:13:12;11.80;82.50
29663;DHT22;16578;53.266;7.920;2023-11-21T13:18:14;11.80;82.00
29663;DHT22;16578;53.266;7.920;2023-11-21T13:20:41;11.80;82.00
29663;DHT22;16578;53.266;7.920;2023-11-21T13:23:09;11.70;81.90
29663;DHT22;16578;53.266;7.920;2023-11-21T13:25:38;11.80;82.00
29663;DHT22;16578;53.266;7.920;2023-11-21T13:28:05;11.70;82.00
29663;DHT22;16578;53.266;7.920;2023-11-21T13:30:30;11.80;82.00
29663;DHT22;16578;53.266;7.920;2023-11-21T13:33:00;11.80;82.10
29663;DHT22;16578;53.266;7.920;2023-11-21T13:35:37;11.80;82.20
29663;DHT22;16578;53.266;7.920;2023-11-21T13:40:33;11.80;82.20
29663;DHT22;16578;53.266;7.920;2023-11-21T13:43:05;11.80;82.20
29663;DHT22;16578;53.266;7.920;2023-11-21T13:45:38;11.80;82.00
29663;DHT22;16578;53.266;7.920;2023-11-21T13:48:08;11.80;82.00
29663;DHT22;16578;53.266;7.920;2023-11-21T13:50:45;11.80;81.80
29663;DHT22;16578;53.266;7.920;2023-11-21T13:53:23;11.80;81.60
29663;DHT22;16578;53.266;7.920;2023-11-21T13:55:53;11.80;81.80
29663;DHT22;16578;53.266;7.920;2023-11-21T13:58:25;11.80;81.60
29663;DHT22;16578;53.266;7.920;2023-11-21T14:01:10;11.80;81.40
29663;DHT22;16578;53.266;7.920;2023-11-21T14:03:54;11.80;81.50
29663;DHT22;16578;53.266;7.920;2023-11-21T14:06:26;11.70;81.50
29663;DHT22;16578;53.266;7.920;2023-11-21T14:09:02;11.70;81.30
29663;DHT22;16578;53.266;7.920;2023-11-21T14:11:31;11.70;81.30
29663;DHT22;16578;53.266;7.920;2023-11-21T14:13:56;11.70;81.30
29663;DHT22;16578;53.266;7.920;2023-11-21T14:16:24;11.70;81.30
29663;DHT22;16578;53.266;7.920;2023-11-21T14:18:50;11.70;81.40
29663;DHT22;16578;53.266;7.920;2023-11-21T14:21:24;11.60;81.30
29663;DHT22;16578;53.266;7.920;2023-11-21T14:23:49;11.60;81.10
29663;DHT22;16578;53.266;7.920;2023-11-21T14:26:15;11.60;81.90
29663;DHT22;16578;53.266;7.920;2023-11-21T14:28:42;11.60;81.00
29663;DHT22;16578;53.266;7.920;2023-11-21T14:31:08;11.60;81.00
29663;DHT22;16578;53.266;7.920;2023-11-21T14:33:39;11.50;80.90
29663;DHT22;16578;53.266;7.920;2023-11-21T14:36:06;11.50;80.90
29663;DHT22;16578;53.266;7.920;2023-11-21T14:38:33;11.50;81.00
29663;DHT22;16578;53.266;7.920;2023-11-21T14:40:59;11.40;80.90
29663;DHT22;16578;53.266;7.920;2023-11-21T14:43:24;11.40;81.10
29663;DHT22;16578;53.266;7.920;2023-11-21T14:45:51;11.40;80.90
29663;DHT22;16578;53.266;7.920;2023-11-21T14:48:16;11.40;80.90
29663;DHT22;16578;53.266;7.920;2023-11-21T14:50:51;11.40;80.70
29663;DHT22;16578;53.266;7.920;2023-11-21T14:53:37;11.30;80.60
29663;DHT22;16578;53.266;7.920;2023-11-21T14:56:10;11.30;80.70
29663;DHT22;16578;53.266;7.920;2023-11-21T14:58:36;11.30;80.70
29663;DHT22;16578;53.266;7.920;2023-11-21T15:01:04;11.20;80.70
29663;DHT22;16578;53.266;7.920;2023-11-21T15:03:29;11.20;80.80
29663;DHT22;16578;53.266;7.920;2023-11-21T15:06:03;11.20;80.90
29663;DHT22;16578;53.266;7.920;2023-11-21T15:08:47;11.20;81.00
29663;DHT22;16578;53.266;7.920;2023-11-21T15:11:13;11.20;81.10
29663;DHT22;16578;53.266;7.920;2023-11-21T15:13:41;11.20;81.10
29663;DHT22;16578;53.266;7.920;2023-11-21T15:16:08;11.10;81.00
29663;DHT22;16578;53.266;7.920;2023-11-21T15:18:35;11.20;81.10
29663;DHT22;16578;53.266;7.920;2023-11-21T15:21:01;11.10;81.10
29663;DHT22;16578;53.266;7.920;2023-11-21T15:23:29;11.10;81.10
29663;DHT22;16578;53.266;7.920;2023-11-21T15:25:56;11.10;81.20
29663;DHT22;16578;53.266;7.920;2023-11-21T15:28:23;11.10;82.00
29663;DHT22;16578;53.266;7.920;2023-11-21T15:30:50;11.10;81.10
29663;DHT22;16578;53.266;7.920;2023-11-21T15:33:16;11.10;81.10
29663;DHT22;16578;53.266;7.920;2023-11-21T15:35:42;11.10;81.20
29663;DHT22;16578;53.266;7.920;2023-11-21T15:38:08;11.10;81.00
29663;DHT22;16578;53.266;7.920;2023-11-21T15:40:34;11.10;81.10
29663;DHT22;16578;53.266;7.920;2023-11-21T15:43:00;11.10;81.10
29663;DHT22;16578;53.266;7.920;2023-11-21T15:45:25;11.10;80.90
29663;DHT22;16578;53.266;7.920;2023-11-21T15:47:51;11.10;80.90
29663;DHT22;16578;53.266;7.920;2023-11-21T15:50:18;11.00;80.70